sensor_id;sensor_type;location;lat;lon;timestamp;P1;durP1;ratioP1;P2;durP2;ratioP2
72087;SDS011;59961;50.232;8.616;2024-03-17T00:01:32;2.33;;;1.25;;
72087;SDS011;59961;50.232;8.616;2024-03-17T00:03:57;2.10;;;1.10;;
72087;SDS011;59961;50.232;8.616;2024-03-17T00:06:24;3.47;;;0.88;;
72087;SDS011;59961;50.232;8.616;2024-03-17T00:08:49;3.47;;;1.40;;
72087;SDS011;59961;50.232;8.616;2024-03-17T00:11:15;2.67;;;1.50;;
72087;SDS011;59961;50.232;8.616;2024-03-17T00:13:40;3.60;;;1.30;;
72087;SDS011;59961;50.232;8.616;2024-03-17T00:16:06;4.20;;;1.30;;
72087;SDS011;59961;50.232;8.616;2024-03-17T00:18:32;2.65;;;1.20;;
72087;SDS011;59961;50.232;8.616;2024-03-17T00:20:57;2.80;;;1.30;;
72087;SDS011;59961;50.232;8.616;2024-03-17T00:23:22;3.53;;;1.50;;
72087;SDS011;59961;50.232;8.616;2024-03-17T00:25:47;2.50;;;1.03;;
72087;SDS011;59961;50.232;8.616;2024-03-17T00:28:12;6.93;;;1.55;;
72087;SDS011;59961;50.232;8.616;2024-03-17T00:30:37;2.10;;;1.40;;
72087;SDS011;59961;50.232;8.616;2024-03-17T00:33:03;4.78;;;1.60;;
72087;SDS011;59961;50.232;8.616;2024-03-17T00:35:28;4.37;;;1.60;;
72087;SDS011;59961;50.232;8.616;2024-03-17T00:37:53;2.30;;;1.33;;
72087;SDS011;59961;50.232;8.616;2024-03-17T00:40:19;5.22;;;1.45;;
72087;SDS011;59961;50.232;8.616;2024-03-17T00:42:44;5.57;;;1.70;;
72087;SDS011;59961;50.232;8.616;2024-03-17T00:45:10;2.30;;;1.30;;
72087;SDS011;59961;50.232;8.616;2024-03-17T00:47:36;3.83;;;1.27;;
72087;SDS011;59961;50.232;8.616;2024-03-17T00:50:01;3.00;;;1.40;;
72087;SDS011;59961;50.232;8.616;2024-03-17T00:52:26;3.20;;;1.50;;
72087;SDS011;59961;50.232;8.616;2024-03-17T00:54:52;2.13;;;1.20;;
72087;SDS011;59961;50.232;8.616;2024-03-17T00:57:17;3.27;;;1.47;;
72087;SDS011;59961;50.232;8.616;2024-03-17T00:59:42;2.42;;;1.45;;
72087;SDS011;59961;50.232;8.616;2024-03-17T01:02:09;2.13;;;1.52;;
72087;SDS011;59961;50.232;8.616;2024-03-17T01:04:34;3.53;;;1.33;;
72087;SDS011;59961;50.232;8.616;2024-03-17T01:06:59;3.20;;;1.43;;
72087;SDS011;59961;50.232;8.616;2024-03-17T01:09:25;2.50;;;1.20;;
72087;SDS011;59961;50.232;8.616;2024-03-17T01:11:50;6.38;;;1.75;;
72087;SDS011;59961;50.232;8.616;2024-03-17T01:14:15;3.00;;;1.50;;
72087;SDS011;59961;50.232;8.616;2024-03-17T01:16:40;2.27;;;1.23;;
72087;SDS011;59961;50.232;8.616;2024-03-17T01:19:05;4.75;;;1.42;;
72087;SDS011;59961;50.232;8.616;2024-03-17T01:21:30;2.60;;;1.40;;
72087;SDS011;59961;50.232;8.616;2024-03-17T01:23:56;3.53;;;1.27;;
72087;SDS011;59961;50.232;8.616;2024-03-17T01:26:21;4.13;;;1.40;;
72087;SDS011;59961;50.232;8.616;2024-03-17T01:28:46;3.47;;;1.40;;
72087;SDS011;59961;50.232;8.616;2024-03-17T01:31:11;2.90;;;1.33;;
72087;SDS011;59961;50.232;8.616;2024-03-17T01:33:36;4.57;;;1.77;;
72087;SDS011;59961;50.232;8.616;2024-03-17T01:36:02;4.17;;;2.00;;
72087;SDS011;59961;50.232;8.616;2024-03-17T01:38:27;5.57;;;1.97;;
72087;SDS011;59961;50.232;8.616;2024-03-17T01:40:52;4.77;;;1.90;;
72087;SDS011;59961;50.232;8.616;2024-03-17T01:43:17;5.03;;;1.67;;
72087;SDS011;59961;50.232;8.616;2024-03-17T01:45:43;4.97;;;2.10;;
72087;SDS011;59961;50.232;8.616;2024-03-17T01:48:09;4.97;;;1.77;;
72087;SDS011;59961;50.232;8.616;2024-03-17T01:50:36;4.77;;;1.80;;
72087;SDS011;59961;50.232;8.616;2024-03-17T01:53:03;3.85;;;1.63;;
72087;SDS011;59961;50.232;8.616;2024-03-17T01:55:32;4.57;;;1.90;;
72087;SDS011;59961;50.232;8.616;2024-03-17T01:57:57;4.65;;;1.73;;
72087;SDS011;59961;50.232;8.616;2024-03-17T02:00:23;4.83;;;1.67;;
72087;SDS011;59961;50.232;8.616;2024-03-17T02:02:48;4.67;;;1.73;;
72087;SDS011;59961;50.232;8.616;2024-03-17T02:05:13;5.67;;;1.83;;
72087;SDS011;59961;50.232;8.616;2024-03-17T02:07:38;4.67;;;2.00;;
72087;SDS011;59961;50.232;8.616;2024-03-17T02:10:03;6.30;;;2.10;;
72087;SDS011;59961;50.232;8.616;2024-03-17T02:12:30;5.93;;;2.22;;
72087;SDS011;59961;50.232;8.616;2024-03-17T02:14:57;4.13;;;1.85;;
72087;SDS011;59961;50.232;8.616;2024-03-17T02:17:22;3.10;;;1.57;;
72087;SDS011;59961;50.232;8.616;2024-03-17T02:19:47;6.03;;;2.28;;
72087;SDS011;59961;50.232;8.616;2024-03-17T02:22:15;3.80;;;1.70;;
72087;SDS011;59961;50.232;8.616;2024-03-17T02:24:42;3.20;;;1.83;;
72087;SDS011;59961;50.232;8.616;2024-03-17T02:27:07;4.07;;;1.70;;
72087;SDS011;59961;50.232;8.616;2024-03-17T02:29:32;3.67;;;1.47;;
72087;SDS011;59961;50.232;8.616;2024-03-17T02:31:57;4.38;;;2.13;;
72087;SDS011;59961;50.232;8.616;2024-03-17T02:34:22;3.47;;;1.70;;
72087;SDS011;59961;50.232;8.616;2024-03-17T02:36:48;5.00;;;1.70;;
72087;SDS011;59961;50.232;8.616;2024-03-17T02:39:13;8.93;;;1.80;;
72087;SDS011;59961;50.232;8.616;2024-03-17T02:41:59;3.80;;;1.43;;
72087;SDS011;59961;50.232;8.616;2024-03-17T02:44:24;5.05;;;1.83;;
72087;SDS011;59961;50.232;8.616;2024-03-17T02:46:49;6.83;;;1.67;;
72087;SDS011;59961;50.232;8.616;2024-03-17T02:49:14;3.53;;;1.67;;
72087;SDS011;59961;50.232;8.616;2024-03-17T02:51:43;4.53;;;1.53;;
72087;SDS011;59961;50.232;8.616;2024-03-17T02:54:08;4.38;;;1.60;;
72087;SDS011;59961;50.232;8.616;2024-03-17T02:56:33;6.28;;;1.80;;
72087;SDS011;59961;50.232;8.616;2024-03-17T02:58:58;3.33;;;1.67;;
72087;SDS011;59961;50.232;8.616;2024-03-17T03:01:24;3.05;;;1.50;;
72087;SDS011;59961;50.232;8.616;2024-03-17T03:03:49;3.43;;;1.50;;
72087;SDS011;59961;50.232;8.616;2024-03-17T03:06:15;2.47;;;1.30;;
72087;SDS011;59961;50.232;8.616;2024-03-17T03:08:42;5.05;;;1.70;;
72087;SDS011;59961;50.232;8.616;2024-03-17T03:11:09;2.97;;;1.47;;
72087;SDS011;59961;50.232;8.616;2024-03-17T03:13:36;4.70;;;1.33;;
72087;SDS011;59961;50.232;8.616;2024-03-17T03:16:01;3.43;;;1.20;;
72087;SDS011;59961;50.232;8.616;2024-03-17T03:18:26;2.38;;;1.40;;
72087;SDS011;59961;50.232;8.616;2024-03-17T03:20:51;5.47;;;1.63;;
72087;SDS011;59961;50.232;8.616;2024-03-17T03:23:17;4.07;;;1.73;;
72087;SDS011;59961;50.232;8.616;2024-03-17T03:25:43;3.87;;;1.70;;
72087;SDS011;59961;50.232;8.616;2024-03-17T03:28:08;2.60;;;1.40;;
72087;SDS011;59961;50.232;8.616;2024-03-17T03:30:37;3.97;;;1.48;;
72087;SDS011;59961;50.232;8.616;2024-03-17T03:33:02;4.83;;;1.40;;
72087;SDS011;59961;50.232;8.616;2024-03-17T03:35:29;3.67;;;1.75;;
72087;SDS011;59961;50.232;8.616;2024-03-17T03:37:55;2.10;;;1.30;;
72087;SDS011;59961;50.232;8.616;2024-03-17T03:40:20;3.00;;;1.50;;
72087;SDS011;59961;50.232;8.616;2024-03-17T03:42:45;6.25;;;1.67;;
72087;SDS011;59961;50.232;8.616;2024-03-17T03:45:11;3.40;;;1.80;;
72087;SDS011;59961;50.232;8.616;2024-03-17T03:47:39;5.63;;;1.80;;
72087;SDS011;59961;50.232;8.616;2024-03-17T03:50:08;3.87;;;1.30;;
72087;SDS011;59961;50.232;8.616;2024-03-17T03:52:37;5.88;;;1.88;;
72087;SDS011;59961;50.232;8.616;2024-03-17T03:55:03;3.83;;;1.63;;
72087;SDS011;59961;50.232;8.616;2024-03-17T03:57:29;6.10;;;1.70;;
72087;SDS011;59961;50.232;8.616;2024-03-17T03:59:55;4.87;;;2.13;;
72087;SDS011;59961;50.232;8.616;2024-03-17T04:02:20;2.47;;;1.60;;
72087;SDS011;59961;50.232;8.616;2024-03-17T04:04:45;3.47;;;1.60;;
72087;SDS011;59961;50.232;8.616;2024-03-17T04:07:10;5.90;;;1.63;;
72087;SDS011;59961;50.232;8.616;2024-03-17T04:09:37;5.63;;;1.63;;
72087;SDS011;59961;50.232;8.616;2024-03-17T04:12:02;2.87;;;1.20;;
72087;SDS011;59961;50.232;8.616;2024-03-17T04:14:27;3.25;;;1.35;;
72087;SDS011;59961;50.232;8.616;2024-03-17T04:16:54;6.00;;;1.47;;
72087;SDS011;59961;50.232;8.616;2024-03-17T04:19:20;4.10;;;1.40;;
72087;SDS011;59961;50.232;8.616;2024-03-17T04:21:45;4.63;;;2.00;;
72087;SDS011;59961;50.232;8.616;2024-03-17T04:24:11;2.50;;;1.10;;
72087;SDS011;59961;50.232;8.616;2024-03-17T04:26:37;3.22;;;1.77;;
72087;SDS011;59961;50.232;8.616;2024-03-17T04:29:03;4.00;;;1.60;;
72087;SDS011;59961;50.232;8.616;2024-03-17T04:31:28;3.90;;;1.70;;
72087;SDS011;59961;50.232;8.616;2024-03-17T04:33:54;3.28;;;1.40;;
72087;SDS011;59961;50.232;8.616;2024-03-17T04:36:19;2.27;;;1.30;;
72087;SDS011;59961;50.232;8.616;2024-03-17T04:38:44;3.20;;;1.42;;
72087;SDS011;59961;50.232;8.616;2024-03-17T04:41:09;2.87;;;1.27;;
72087;SDS011;59961;50.232;8.616;2024-03-17T04:43:35;3.00;;;1.70;;
72087;SDS011;59961;50.232;8.616;2024-03-17T04:46:03;3.20;;;1.57;;
72087;SDS011;59961;50.232;8.616;2024-03-17T04:48:29;3.80;;;1.65;;
72087;SDS011;59961;50.232;8.616;2024-03-17T04:50:54;4.47;;;1.50;;
72087;SDS011;59961;50.232;8.616;2024-03-17T04:53:20;3.90;;;1.40;;
72087;SDS011;59961;50.232;8.616;2024-03-17T04:55:45;2.83;;;1.30;;
72087;SDS011;59961;50.232;8.616;2024-03-17T04:58:10;3.27;;;1.60;;
72087;SDS011;59961;50.232;8.616;2024-03-17T05:00:36;3.38;;;1.50;;
72087;SDS011;59961;50.232;8.616;2024-03-17T05:03:01;2.80;;;1.77;;
72087;SDS011;59961;50.232;8.616;2024-03-17T05:05:26;2.25;;;1.17;;
72087;SDS011;59961;50.232;8.616;2024-03-17T05:07:51;5.00;;;1.50;;
72087;SDS011;59961;50.232;8.616;2024-03-17T05:10:16;3.57;;;1.50;;
72087;SDS011;59961;50.232;8.616;2024-03-17T05:12:41;4.18;;;1.75;;
72087;SDS011;59961;50.232;8.616;2024-03-17T05:15:07;3.38;;;1.45;;
72087;SDS011;59961;50.232;8.616;2024-03-17T05:17:32;3.43;;;1.30;;
72087;SDS011;59961;50.232;8.616;2024-03-17T05:19:57;2.83;;;1.60;;
72087;SDS011;59961;50.232;8.616;2024-03-17T05:22:22;3.38;;;1.83;;
72087;SDS011;59961;50.232;8.616;2024-03-17T05:24:47;4.00;;;1.80;;
72087;SDS011;59961;50.232;8.616;2024-03-17T05:27:13;4.15;;;1.58;;
72087;SDS011;59961;50.232;8.616;2024-03-17T05:29:38;4.20;;;1.75;;
72087;SDS011;59961;50.232;8.616;2024-03-17T05:32:04;4.13;;;1.40;;
72087;SDS011;59961;50.232;8.616;2024-03-17T05:34:29;4.20;;;1.60;;
72087;SDS011;59961;50.232;8.616;2024-03-17T05:36:54;4.20;;;1.73;;
72087;SDS011;59961;50.232;8.616;2024-03-17T05:39:20;3.73;;;1.40;;
72087;SDS011;59961;50.232;8.616;2024-03-17T05:41:45;3.37;;;1.63;;
72087;SDS011;59961;50.232;8.616;2024-03-17T05:44:13;3.42;;;1.58;;
72087;SDS011;59961;50.232;8.616;2024-03-17T05:46:39;3.50;;;1.52;;
72087;SDS011;59961;50.232;8.616;2024-03-17T05:49:04;2.50;;;1.30;;
72087;SDS011;59961;50.232;8.616;2024-03-17T05:51:31;3.30;;;1.60;;
72087;SDS011;59961;50.232;8.616;2024-03-17T05:53:56;2.43;;;1.40;;
72087;SDS011;59961;50.232;8.616;2024-03-17T05:56:23;3.67;;;1.63;;
72087;SDS011;59961;50.232;8.616;2024-03-17T05:58:48;3.20;;;1.55;;
72087;SDS011;59961;50.232;8.616;2024-03-17T06:01:13;3.67;;;1.77;;
72087;SDS011;59961;50.232;8.616;2024-03-17T06:03:38;2.97;;;1.80;;
72087;SDS011;59961;50.232;8.616;2024-03-17T06:06:04;2.97;;;1.55;;
72087;SDS011;59961;50.232;8.616;2024-03-17T06:08:30;2.92;;;1.65;;
72087;SDS011;59961;50.232;8.616;2024-03-17T06:10:55;4.13;;;1.70;;
72087;SDS011;59961;50.232;8.616;2024-03-17T06:13:23;4.32;;;2.00;;
72087;SDS011;59961;50.232;8.616;2024-03-17T06:15:49;2.92;;;1.40;;
72087;SDS011;59961;50.232;8.616;2024-03-17T06:18:14;4.20;;;1.60;;
72087;SDS011;59961;50.232;8.616;2024-03-17T06:20:42;4.95;;;2.00;;
72087;SDS011;59961;50.232;8.616;2024-03-17T06:23:08;4.90;;;1.80;;
72087;SDS011;59961;50.232;8.616;2024-03-17T06:25:40;4.13;;;1.73;;
72087;SDS011;59961;50.232;8.616;2024-03-17T06:28:06;3.27;;;1.43;;
72087;SDS011;59961;50.232;8.616;2024-03-17T06:30:31;6.90;;;1.90;;
72087;SDS011;59961;50.232;8.616;2024-03-17T06:32:57;4.00;;;2.05;;
72087;SDS011;59961;50.232;8.616;2024-03-17T06:35:22;4.05;;;1.73;;
72087;SDS011;59961;50.232;8.616;2024-03-17T06:37:51;4.72;;;1.70;;
72087;SDS011;59961;50.232;8.616;2024-03-17T06:40:17;3.93;;;1.93;;
72087;SDS011;59961;50.232;8.616;2024-03-17T06:42:42;3.70;;;1.77;;
72087;SDS011;59961;50.232;8.616;2024-03-17T06:45:07;8.50;;;1.90;;
72087;SDS011;59961;50.232;8.616;2024-03-17T06:47:34;4.63;;;1.80;;
72087;SDS011;59961;50.232;8.616;2024-03-17T06:49:59;4.23;;;1.67;;
72087;SDS011;59961;50.232;8.616;2024-03-17T06:52:24;5.03;;;1.63;;
72087;SDS011;59961;50.232;8.616;2024-03-17T06:54:49;4.47;;;1.80;;
72087;SDS011;59961;50.232;8.616;2024-03-17T06:57:15;4.13;;;2.13;;
72087;SDS011;59961;50.232;8.616;2024-03-17T06:59:40;5.73;;;2.07;;
72087;SDS011;59961;50.232;8.616;2024-03-17T07:02:05;6.40;;;2.20;;
72087;SDS011;59961;50.232;8.616;2024-03-17T07:04:31;4.40;;;2.50;;
72087;SDS011;59961;50.232;8.616;2024-03-17T07:06:56;4.23;;;2.27;;
72087;SDS011;59961;50.232;8.616;2024-03-17T07:09:21;5.63;;;2.70;;
72087;SDS011;59961;50.232;8.616;2024-03-17T07:11:47;5.93;;;2.80;;
72087;SDS011;59961;50.232;8.616;2024-03-17T07:14:13;5.28;;;2.85;;
72087;SDS011;59961;50.232;8.616;2024-03-17T07:16:38;5.53;;;2.58;;
72087;SDS011;59961;50.232;8.616;2024-03-17T07:19:04;5.90;;;3.07;;
72087;SDS011;59961;50.232;8.616;2024-03-17T07:21:29;7.18;;;3.35;;
72087;SDS011;59961;50.232;8.616;2024-03-17T07:23:55;8.37;;;3.63;;
72087;SDS011;59961;50.232;8.616;2024-03-17T07:26:20;7.30;;;3.33;;
72087;SDS011;59961;50.232;8.616;2024-03-17T07:28:45;6.93;;;3.47;;
72087;SDS011;59961;50.232;8.616;2024-03-17T07:31:10;6.03;;;2.80;;
72087;SDS011;59961;50.232;8.616;2024-03-17T07:33:36;6.27;;;2.77;;
72087;SDS011;59961;50.232;8.616;2024-03-17T07:36:01;8.00;;;3.50;;
72087;SDS011;59961;50.232;8.616;2024-03-17T07:38:28;6.20;;;3.33;;
72087;SDS011;59961;50.232;8.616;2024-03-17T07:41:00;5.97;;;2.33;;
72087;SDS011;59961;50.232;8.616;2024-03-17T07:43:26;6.30;;;2.93;;
72087;SDS011;59961;50.232;8.616;2024-03-17T07:48:29;9.85;;;2.97;;
72087;SDS011;59961;50.232;8.616;2024-03-17T07:50:57;5.47;;;2.93;;
72087;SDS011;59961;50.232;8.616;2024-03-17T07:53:23;5.15;;;2.67;;
72087;SDS011;59961;50.232;8.616;2024-03-17T07:55:56;5.63;;;2.70;;
72087;SDS011;59961;50.232;8.616;2024-03-17T07:58:21;4.80;;;2.37;;
72087;SDS011;59961;50.232;8.616;2024-03-17T08:00:46;6.43;;;3.07;;
72087;SDS011;59961;50.232;8.616;2024-03-17T08:03:11;7.20;;;2.92;;
72087;SDS011;59961;50.232;8.616;2024-03-17T08:05:37;6.72;;;3.03;;
72087;SDS011;59961;50.232;8.616;2024-03-17T08:08:02;5.88;;;2.80;;
72087;SDS011;59961;50.232;8.616;2024-03-17T08:10:27;5.73;;;2.83;;
72087;SDS011;59961;50.232;8.616;2024-03-17T08:12:52;5.57;;;2.47;;
72087;SDS011;59961;50.232;8.616;2024-03-17T08:15:18;7.13;;;3.00;;
72087;SDS011;59961;50.232;8.616;2024-03-17T08:17:43;4.40;;;2.00;;
72087;SDS011;59961;50.232;8.616;2024-03-17T08:20:09;5.00;;;2.20;;
72087;SDS011;59961;50.232;8.616;2024-03-17T08:22:34;6.10;;;2.43;;
72087;SDS011;59961;50.232;8.616;2024-03-17T08:24:59;6.37;;;3.03;;
72087;SDS011;59961;50.232;8.616;2024-03-17T08:27:24;5.93;;;2.30;;
72087;SDS011;59961;50.232;8.616;2024-03-17T08:29:50;5.50;;;1.97;;
72087;SDS011;59961;50.232;8.616;2024-03-17T08:32:15;6.70;;;2.30;;
72087;SDS011;59961;50.232;8.616;2024-03-17T08:34:40;7.40;;;2.30;;
72087;SDS011;59961;50.232;8.616;2024-03-17T08:37:05;5.00;;;2.47;;
72087;SDS011;59961;50.232;8.616;2024-03-17T08:39:30;4.40;;;2.08;;
72087;SDS011;59961;50.232;8.616;2024-03-17T08:41:55;4.68;;;1.95;;
72087;SDS011;59961;50.232;8.616;2024-03-17T08:44:21;4.70;;;1.88;;
72087;SDS011;59961;50.232;8.616;2024-03-17T08:46:46;5.50;;;2.37;;
72087;SDS011;59961;50.232;8.616;2024-03-17T08:49:11;4.80;;;1.90;;
72087;SDS011;59961;50.232;8.616;2024-03-17T08:51:36;5.97;;;2.15;;
72087;SDS011;59961;50.232;8.616;2024-03-17T08:54:01;7.70;;;2.53;;
72087;SDS011;59961;50.232;8.616;2024-03-17T08:56:26;4.87;;;1.97;;
72087;SDS011;59961;50.232;8.616;2024-03-17T08:58:51;3.97;;;2.00;;
72087;SDS011;59961;50.232;8.616;2024-03-17T09:01:17;6.65;;;2.20;;
72087;SDS011;59961;50.232;8.616;2024-03-17T09:03:42;4.07;;;2.00;;
72087;SDS011;59961;50.232;8.616;2024-03-17T09:06:17;4.45;;;2.08;;
72087;SDS011;59961;50.232;8.616;2024-03-17T09:08:43;5.10;;;2.13;;
72087;SDS011;59961;50.232;8.616;2024-03-17T09:11:11;5.00;;;2.30;;
72087;SDS011;59961;50.232;8.616;2024-03-17T09:13:37;4.18;;;2.15;;
72087;SDS011;59961;50.232;8.616;2024-03-17T09:16:02;5.77;;;2.00;;
72087;SDS011;59961;50.232;8.616;2024-03-17T09:18:28;3.60;;;1.80;;
72087;SDS011;59961;50.232;8.616;2024-03-17T09:21:00;5.97;;;2.45;;
72087;SDS011;59961;50.232;8.616;2024-03-17T09:23:25;4.32;;;2.13;;
72087;SDS011;59961;50.232;8.616;2024-03-17T09:25:56;4.97;;;2.27;;
72087;SDS011;59961;50.232;8.616;2024-03-17T09:28:21;4.90;;;2.45;;
72087;SDS011;59961;50.232;8.616;2024-03-17T09:30:46;4.65;;;2.30;;
72087;SDS011;59961;50.232;8.616;2024-03-17T09:33:12;4.70;;;2.10;;
72087;SDS011;59961;50.232;8.616;2024-03-17T09:35:37;4.28;;;2.10;;
72087;SDS011;59961;50.232;8.616;2024-03-17T09:38:02;5.38;;;2.47;;
72087;SDS011;59961;50.232;8.616;2024-03-17T09:40:29;4.88;;;2.40;;
72087;SDS011;59961;50.232;8.616;2024-03-17T09:42:55;5.88;;;2.30;;
72087;SDS011;59961;50.232;8.616;2024-03-17T09:45:20;3.92;;;2.03;;
72087;SDS011;59961;50.232;8.616;2024-03-17T09:47:46;7.63;;;2.73;;
72087;SDS011;59961;50.232;8.616;2024-03-17T09:50:12;4.90;;;2.10;;
72087;SDS011;59961;50.232;8.616;2024-03-17T09:52:38;4.65;;;2.40;;
72087;SDS011;59961;50.232;8.616;2024-03-17T09:55:16;4.93;;;2.43;;
72087;SDS011;59961;50.232;8.616;2024-03-17T09:57:42;5.85;;;2.63;;
72087;SDS011;59961;50.232;8.616;2024-03-17T10:00:11;5.18;;;2.35;;
72087;SDS011;59961;50.232;8.616;2024-03-17T10:02:43;4.10;;;2.10;;
72087;SDS011;59961;50.232;8.616;2024-03-17T10:05:27;4.18;;;2.20;;
72087;SDS011;59961;50.232;8.616;2024-03-17T10:07:52;7.93;;;2.38;;
72087;SDS011;59961;50.232;8.616;2024-03-17T10:10:18;4.00;;;2.10;;
72087;SDS011;59961;50.232;8.616;2024-03-17T10:12:48;3.97;;;2.20;;
72087;SDS011;59961;50.232;8.616;2024-03-17T10:15:14;5.53;;;2.10;;
72087;SDS011;59961;50.232;8.616;2024-03-17T10:17:39;6.13;;;2.00;;
72087;SDS011;59961;50.232;8.616;2024-03-17T10:20:17;4.53;;;2.50;;
72087;SDS011;59961;50.232;8.616;2024-03-17T10:22:58;6.45;;;2.53;;
72087;SDS011;59961;50.232;8.616;2024-03-17T10:25:33;6.03;;;2.47;;
72087;SDS011;59961;50.232;8.616;2024-03-17T10:27:58;6.18;;;2.55;;
72087;SDS011;59961;50.232;8.616;2024-03-17T10:30:24;7.17;;;2.27;;
72087;SDS011;59961;50.232;8.616;2024-03-17T10:32:55;5.60;;;2.33;;
72087;SDS011;59961;50.232;8.616;2024-03-17T10:35:27;6.22;;;2.35;;
72087;SDS011;59961;50.232;8.616;2024-03-17T10:37:59;4.33;;;1.57;;
72087;SDS011;59961;50.232;8.616;2024-03-17T10:40:25;3.63;;;1.90;;
72087;SDS011;59961;50.232;8.616;2024-03-17T10:42:50;4.00;;;2.08;;
72087;SDS011;59961;50.232;8.616;2024-03-17T10:45:16;5.50;;;2.37;;
72087;SDS011;59961;50.232;8.616;2024-03-17T10:47:42;4.37;;;2.37;;
72087;SDS011;59961;50.232;8.616;2024-03-17T10:50:09;4.53;;;2.05;;
72087;SDS011;59961;50.232;8.616;2024-03-17T10:52:37;4.65;;;2.08;;
72087;SDS011;59961;50.232;8.616;2024-03-17T10:55:07;7.95;;;2.78;;
72087;SDS011;59961;50.232;8.616;2024-03-17T10:59:59;9.23;;;3.05;;
72087;SDS011;59961;50.232;8.616;2024-03-17T11:02:27;4.55;;;2.47;;
72087;SDS011;59961;50.232;8.616;2024-03-17T11:04:55;7.53;;;2.78;;
72087;SDS011;59961;50.232;8.616;2024-03-17T11:07:21;8.07;;;2.90;;
72087;SDS011;59961;50.232;8.616;2024-03-17T11:09:47;7.05;;;2.60;;
72087;SDS011;59961;50.232;8.616;2024-03-17T11:17:40;5.15;;;2.50;;
72087;SDS011;59961;50.232;8.616;2024-03-17T11:20:25;4.97;;;2.20;;
72087;SDS011;59961;50.232;8.616;2024-03-17T11:22:51;6.07;;;2.65;;
72087;SDS011;59961;50.232;8.616;2024-03-17T11:27:50;3.80;;;2.10;;
72087;SDS011;59961;50.232;8.616;2024-03-17T11:32:59;6.32;;;2.47;;
72087;SDS011;59961;50.232;8.616;2024-03-17T11:35:24;5.73;;;2.80;;
72087;SDS011;59961;50.232;8.616;2024-03-17T11:37:49;5.57;;;2.43;;
72087;SDS011;59961;50.232;8.616;2024-03-17T11:40:24;5.65;;;2.55;;
72087;SDS011;59961;50.232;8.616;2024-03-17T11:43:01;5.37;;;2.47;;
72087;SDS011;59961;50.232;8.616;2024-03-17T11:45:27;4.97;;;2.40;;
72087;SDS011;59961;50.232;8.616;2024-03-17T11:47:52;4.37;;;2.13;;
72087;SDS011;59961;50.232;8.616;2024-03-17T11:50:18;6.43;;;2.85;;
72087;SDS011;59961;50.232;8.616;2024-03-17T11:52:43;6.77;;;2.60;;
72087;SDS011;59961;50.232;8.616;2024-03-17T11:55:16;7.93;;;2.67;;
72087;SDS011;59961;50.232;8.616;2024-03-17T11:57:43;5.88;;;3.03;;
72087;SDS011;59961;50.232;8.616;2024-03-17T12:00:18;5.10;;;2.30;;
72087;SDS011;59961;50.232;8.616;2024-03-17T12:02:47;4.47;;;2.08;;
72087;SDS011;59961;50.232;8.616;2024-03-17T12:05:12;4.97;;;2.38;;
72087;SDS011;59961;50.232;8.616;2024-03-17T12:07:41;6.22;;;2.50;;
72087;SDS011;59961;50.232;8.616;2024-03-17T12:10:07;9.20;;;3.17;;
72087;SDS011;59961;50.232;8.616;2024-03-17T12:12:35;7.30;;;2.53;;
72087;SDS011;59961;50.232;8.616;2024-03-17T12:15:00;5.20;;;2.35;;
72087;SDS011;59961;50.232;8.616;2024-03-17T12:17:25;4.00;;;2.20;;
72087;SDS011;59961;50.232;8.616;2024-03-17T12:19:51;6.90;;;2.80;;
72087;SDS011;59961;50.232;8.616;2024-03-17T12:22:17;5.35;;;2.33;;
72087;SDS011;59961;50.232;8.616;2024-03-17T12:24:46;5.55;;;2.78;;
72087;SDS011;59961;50.232;8.616;2024-03-17T12:27:15;7.20;;;2.80;;
72087;SDS011;59961;50.232;8.616;2024-03-17T12:29:41;5.85;;;2.63;;
72087;SDS011;59961;50.232;8.616;2024-03-17T12:32:11;5.23;;;2.57;;
72087;SDS011;59961;50.232;8.616;2024-03-17T12:34:37;5.10;;;2.70;;
72087;SDS011;59961;50.232;8.616;2024-03-17T12:37:03;5.50;;;2.67;;
72087;SDS011;59961;50.232;8.616;2024-03-17T12:39:29;6.07;;;2.72;;
72087;SDS011;59961;50.232;8.616;2024-03-17T12:44:33;5.60;;;2.57;;
72087;SDS011;59961;50.232;8.616;2024-03-17T12:46:59;4.60;;;2.55;;
72087;SDS011;59961;50.232;8.616;2024-03-17T12:49:28;5.93;;;2.60;;
72087;SDS011;59961;50.232;8.616;2024-03-17T12:51:54;5.93;;;2.58;;
72087;SDS011;59961;50.232;8.616;2024-03-17T12:54:20;6.63;;;3.00;;
72087;SDS011;59961;50.232;8.616;2024-03-17T12:56:45;4.90;;;2.40;;
72087;SDS011;59961;50.232;8.616;2024-03-17T12:59:42;9.18;;;2.90;;
72087;SDS011;59961;50.232;8.616;2024-03-17T13:02:25;5.03;;;2.42;;
72087;SDS011;59961;50.232;8.616;2024-03-17T13:07:36;6.47;;;3.00;;
72087;SDS011;59961;50.232;8.616;2024-03-17T13:10:01;6.83;;;2.70;;
72087;SDS011;59961;50.232;8.616;2024-03-17T13:12:27;9.10;;;3.42;;
72087;SDS011;59961;50.232;8.616;2024-03-17T13:14:53;6.97;;;2.90;;
72087;SDS011;59961;50.232;8.616;2024-03-17T13:17:18;6.72;;;2.80;;
72087;SDS011;59961;50.232;8.616;2024-03-17T13:19:45;6.87;;;3.20;;
72087;SDS011;59961;50.232;8.616;2024-03-17T13:22:11;5.55;;;2.97;;
72087;SDS011;59961;50.232;8.616;2024-03-17T13:24:36;9.67;;;3.37;;
72087;SDS011;59961;50.232;8.616;2024-03-17T13:27:01;6.13;;;3.42;;
72087;SDS011;59961;50.232;8.616;2024-03-17T13:29:30;5.32;;;2.85;;
72087;SDS011;59961;50.232;8.616;2024-03-17T13:31:57;7.68;;;3.22;;
72087;SDS011;59961;50.232;8.616;2024-03-17T13:34:22;5.65;;;2.80;;
72087;SDS011;59961;50.232;8.616;2024-03-17T13:36:48;8.10;;;3.03;;
72087;SDS011;59961;50.232;8.616;2024-03-17T13:39:13;7.67;;;3.27;;
72087;SDS011;59961;50.232;8.616;2024-03-17T13:41:39;9.47;;;3.70;;
72087;SDS011;59961;50.232;8.616;2024-03-17T13:44:04;8.03;;;3.70;;
72087;SDS011;59961;50.232;8.616;2024-03-17T13:46:29;5.90;;;3.20;;
72087;SDS011;59961;50.232;8.616;2024-03-17T13:48:54;8.85;;;3.35;;
72087;SDS011;59961;50.232;8.616;2024-03-17T13:51:22;6.22;;;3.40;;
72087;SDS011;59961;50.232;8.616;2024-03-17T13:53:47;9.27;;;3.60;;
72087;SDS011;59961;50.232;8.616;2024-03-17T13:56:13;6.47;;;3.33;;
72087;SDS011;59961;50.232;8.616;2024-03-17T13:58:39;6.87;;;3.57;;
72087;SDS011;59961;50.232;8.616;2024-03-17T14:01:04;8.13;;;3.20;;
72087;SDS011;59961;50.232;8.616;2024-03-17T14:03:29;8.27;;;3.80;;
72087;SDS011;59961;50.232;8.616;2024-03-17T14:05:55;8.82;;;3.63;;
72087;SDS011;59961;50.232;8.616;2024-03-17T14:08:20;7.40;;;3.47;;
72087;SDS011;59961;50.232;8.616;2024-03-17T14:10:45;7.63;;;3.67;;
72087;SDS011;59961;50.232;8.616;2024-03-17T14:13:12;6.40;;;3.30;;
72087;SDS011;59961;50.232;8.616;2024-03-17T14:15:37;8.27;;;3.53;;
72087;SDS011;59961;50.232;8.616;2024-03-17T14:18:02;8.17;;;3.83;;
72087;SDS011;59961;50.232;8.616;2024-03-17T14:20:27;10.90;;;3.73;;
72087;SDS011;59961;50.232;8.616;2024-03-17T14:22:53;6.70;;;3.17;;
72087;SDS011;59961;50.232;8.616;2024-03-17T14:25:19;6.63;;;3.30;;
72087;SDS011;59961;50.232;8.616;2024-03-17T14:27:44;7.00;;;3.50;;
72087;SDS011;59961;50.232;8.616;2024-03-17T14:30:10;8.33;;;3.33;;
72087;SDS011;59961;50.232;8.616;2024-03-17T14:32:38;7.40;;;3.83;;
72087;SDS011;59961;50.232;8.616;2024-03-17T14:35:03;8.13;;;3.67;;
72087;SDS011;59961;50.232;8.616;2024-03-17T14:37:29;6.40;;;3.58;;
72087;SDS011;59961;50.232;8.616;2024-03-17T14:39:54;7.80;;;4.10;;
72087;SDS011;59961;50.232;8.616;2024-03-17T14:42:20;8.27;;;3.63;;
72087;SDS011;59961;50.232;8.616;2024-03-17T14:44:45;7.37;;;3.33;;
72087;SDS011;59961;50.232;8.616;2024-03-17T14:47:12;9.02;;;4.18;;
72087;SDS011;59961;50.232;8.616;2024-03-17T14:49:37;6.97;;;3.33;;
72087;SDS011;59961;50.232;8.616;2024-03-17T14:52:02;7.73;;;3.93;;
72087;SDS011;59961;50.232;8.616;2024-03-17T14:54:30;10.00;;;3.88;;
72087;SDS011;59961;50.232;8.616;2024-03-17T14:56:55;7.77;;;3.90;;
72087;SDS011;59961;50.232;8.616;2024-03-17T14:59:21;8.53;;;3.97;;
72087;SDS011;59961;50.232;8.616;2024-03-17T15:01:46;7.35;;;3.80;;
72087;SDS011;59961;50.232;8.616;2024-03-17T15:04:12;8.50;;;3.85;;